Time;durP1;ratioP1;P1;durP2;ratioP2;P2;SDS_P1;SDS_P2;PMS_P1;PMS_P2;Temp;Humidity;BMP_temperature;BMP_pressure;BME280_temperature;BME280_humidity;BME280_pressure;Samples;Min_cycle;Max_cycle;Signal;HPM_P1;HPM_P2
2023/12/03 00:01:39;;;;;;;27.30;13.97;;;-0.50;1.00;;;;;;5070877;28;20674;-79
2023/12/03 00:04:06;;;;;;;24.03;13.30;;;-0.50;1.00;;;;;;5064389;28;20205;-81
2023/12/03 00:06:34;;;;;;;24.33;12.53;;;-0.50;1.00;;;;;;5068640;28;20209;-80
2023/12/03 00:09:01;;;;;;;25.17;13.87;;;-0.50;1.00;;;;;;5072581;28;20226;-79
2023/12/03 00:11:28;;;;;;;24.80;13.43;;;-0.50;1.00;;;;;;5072127;28;20194;-80
2023/12/03 00:13:55;;;;;;;25.43;11.83;;;-0.50;1.00;;;;;;5072296;28;20230;-80
2023/12/03 00:16:22;;;;;;;23.13;12.63;;;-0.40;1.00;;;;;;5073218;28;20289;-79
2023/12/03 00:18:49;;;;;;;23.57;12.23;;;-0.40;1.00;;;;;;5073288;28;20225;-81
2023/12/03 00:21:16;;;;;;;23.00;12.57;;;-0.40;99.90;;;;;;5074360;28;20206;-81
2023/12/03 00:23:44;;;;;;;23.00;11.93;;;-0.40;99.90;;;;;;5072563;28;20198;-81
2023/12/03 00:26:11;;;;;;;22.53;11.93;;;-0.40;99.90;;;;;;5073996;28;20589;-81
2023/12/03 00:28:38;;;;;;;22.77;12.47;;;-0.40;88.90;;;;;;5063456;28;20238;-82
2023/12/03 00:31:05;;;;;;;22.43;11.37;;;-0.40;57.50;;;;;;5069071;28;20680;-81
2023/12/03 00:33:32;;;;;;;22.17;11.90;;;-0.50;26.00;;;;;;5074648;28;20208;-80
2023/12/03 00:35:59;;;;;;;24.87;13.10;;;-0.40;94.20;;;;;;5068826;28;20219;-81
2023/12/03 00:38:25;;;;;;;24.80;12.77;;;-0.40;1.00;;;;;;5072956;28;20245;-80
2023/12/03 00:40:54;;;;;;;26.43;13.00;;;-0.40;1.00;;;;;;5073709;28;20297;-80
2023/12/03 00:43:21;;;;;;;22.83;12.07;;;-0.40;1.00;;;;;;5074401;28;20207;-79
2023/12/03 00:45:49;;;;;;;23.20;12.47;;;-0.40;1.00;;;;;;5071089;28;20574;-80
2023/12/03 00:48:16;;;;;;;23.73;12.90;;;-0.40;1.00;;;;;;5071409;28;20274;-80
2023/12/03 00:50:43;;;;;;;24.60;13.00;;;-0.30;1.00;;;;;;5069264;28;20207;-80
2023/12/03 00:53:10;;;;;;;25.13;12.87;;;-0.30;1.00;;;;;;5068491;28;20209;-80
2023/12/03 00:55:36;;;;;;;23.10;12.33;;;-0.30;1.00;;;;;;5068034;28;20254;-79
2023/12/03 00:58:05;;;;;;;26.40;13.23;;;-0.30;1.00;;;;;;5069672;28;20202;-80
2023/12/03 01:00:31;;;;;;;24.37;13.23;;;-0.30;1.00;;;;;;5072871;28;20203;-80
2023/12/03 01:02:58;;;;;;;26.60;13.20;;;-0.30;1.00;;;;;;5070474;28;20209;-80
2023/12/03 01:05:25;;;;;;;24.93;12.57;;;-0.30;1.00;;;;;;5071012;28;20567;-79
2023/12/03 01:07:52;;;;;;;25.17;12.87;;;-0.30;1.00;;;;;;5068376;28;20655;-81
2023/12/03 01:10:18;;;;;;;24.87;12.23;;;-0.30;1.00;;;;;;5067042;28;20232;-81
2023/12/03 01:12:45;;;;;;;25.67;12.97;;;-0.30;1.00;;;;;;5071881;28;20206;-81
2023/12/03 01:15:14;;;;;;;26.90;13.77;;;-0.30;1.00;;;;;;5073528;28;20224;-81
2023/12/03 01:17:41;;;;;;;26.30;12.60;;;-0.30;1.00;;;;;;5071786;28;20202;-81
2023/12/03 01:20:09;;;;;;;26.07;12.87;;;-0.30;1.00;;;;;;5068163;28;20218;-80
2023/12/03 01:22:35;;;;;;;25.67;13.23;;;-0.30;1.00;;;;;;5074098;28;20198;-81
2023/12/03 01:25:02;;;;;;;24.63;13.13;;;-0.30;1.00;;;;;;5075090;28;20270;-80
2023/12/03 01:27:28;;;;;;;26.33;14.47;;;-0.30;3.80;;;;;;5074345;28;20208;-81
2023/12/03 01:29:55;;;;;;;28.43;14.20;;;-0.40;1.00;;;;;;5071890;28;20313;-81
2023/12/03 01:32:23;;;;;;;29.93;15.53;;;-0.40;1.00;;;;;;5076888;28;20645;-79
2023/12/03 01:34:50;;;;;;;30.57;15.77;;;-0.40;99.90;;;;;;5072381;28;20205;-80
2023/12/03 01:37:18;;;;;;;28.67;14.80;;;-0.40;1.00;;;;;;5076132;28;20206;-79
2023/12/03 01:39:45;;;;;;;27.83;15.07;;;-0.50;99.90;;;;;;5071565;28;20223;-79
2023/12/03 01:42:12;;;;;;;30.33;15.93;;;-0.40;1.00;;;;;;5074876;28;20217;-80
2023/12/03 01:44:39;;;;;;;29.90;15.83;;;-0.40;1.00;;;;;;5073535;28;20217;-80
2023/12/03 01:47:06;;;;;;;33.60;17.13;;;-0.50;1.00;;;;;;5076452;28;20204;-79
2023/12/03 01:49:35;;;;;;;30.70;16.13;;;-0.50;1.00;;;;;;5075254;28;20291;-80
2023/12/03 01:52:02;;;;;;;33.83;16.87;;;-0.40;99.90;;;;;;5077141;28;20307;-80
2023/12/03 01:54:35;;;;;;;32.63;17.07;;;-0.40;1.00;;;;;;5071024;28;20199;-80
2023/12/03 01:57:01;;;;;;;32.47;18.33;;;-0.40;1.00;;;;;;5067153;28;20594;-81
2023/12/03 01:59:28;;;;;;;35.13;18.13;;;-0.40;1.00;;;;;;5069921;28;20305;-81
2023/12/03 02:01:55;;;;;;;32.27;18.77;;;-0.40;1.00;;;;;;5064870;28;20203;-81
2023/12/03 02:04:22;;;;;;;35.90;19.40;;;-0.40;1.00;;;;;;5069421;28;20200;-80
2023/12/03 02:06:50;;;;;;;36.57;19.30;;;-0.40;1.00;;;;;;5067758;28;20206;-81
2023/12/03 02:09:19;;;;;;;34.93;19.80;;;-0.40;1.00;;;;;;5075496;28;20265;-82
2023/12/03 02:11:47;;;;;;;35.40;19.47;;;-0.30;1.00;;;;;;5070968;28;20239;-79
2023/12/03 02:14:15;;;;;;;37.10;20.23;;;-0.40;1.00;;;;;;5071742;28;20663;-80
2023/12/03 02:16:46;;;;;;;34.47;19.40;;;-0.40;1.00;;;;;;5073936;28;20206;-79
2023/12/03 02:19:12;;;;;;;40.67;20.73;;;-0.40;1.00;;;;;;5071651;28;20230;-80
2023/12/03 02:21:39;;;;;;;37.97;20.33;;;-0.40;1.00;;;;;;5072565;28;20199;-79
2023/12/03 02:24:08;;;;;;;38.77;20.90;;;-0.40;1.00;;;;;;5072297;28;20207;-80
2023/12/03 02:26:34;;;;;;;39.77;21.80;;;-0.30;1.00;;;;;;5074266;28;20203;-79
2023/12/03 02:29:01;;;;;;;40.60;21.53;;;-0.30;1.00;;;;;;5070868;28;20608;-80
2023/12/03 02:31:30;;;;;;;39.37;22.40;;;-0.30;1.00;;;;;;5071343;28;20205;-80
2023/12/03 02:34:06;;;;;;;39.40;20.87;;;-0.30;1.00;;;;;;5071255;28;20207;-79
2023/12/03 02:36:33;;;;;;;38.37;21.20;;;-0.30;1.00;;;;;;5073938;28;20208;-79
2023/12/03 02:39:00;;;;;;;42.07;22.23;;;-0.30;1.00;;;;;;5070488;28;20214;-80
2023/12/03 02:41:28;;;;;;;42.00;22.73;;;-0.30;1.00;;;;;;5071656;28;20206;-80
2023/12/03 02:43:55;;;;;;;44.73;23.83;;;-0.30;1.00;;;;;;5070511;28;20234;-82
2023/12/03 02:46:21;;;;;;;39.87;21.57;;;-0.30;1.00;;;;;;5074553;28;20213;-80
2023/12/03 02:48:48;;;;;;;39.27;21.60;;;-0.30;1.00;;;;;;5069833;28;20604;-81
2023/12/03 02:51:15;;;;;;;38.27;22.13;;;-0.30;1.00;;;;;;5076258;28;20246;-80
2023/12/03 02:53:44;;;;;;;38.57;21.33;;;-0.30;1.00;;;;;;5069981;28;20206;-79
2023/12/03 02:56:12;;;;;;;38.40;21.47;;;-0.30;1.00;;;;;;5061430;28;20210;-80
2023/12/03 02:58:41;;;;;;;40.07;22.00;;;-0.30;1.00;;;;;;5065049;28;20214;-81
2023/12/03 03:01:09;;;;;;;42.97;23.77;;;-0.20;1.00;;;;;;5068760;28;20206;-81
2023/12/03 03:03:36;;;;;;;40.87;22.93;;;-0.30;1.00;;;;;;5063628;28;20202;-80
2023/12/03 03:06:03;;;;;;;42.03;23.97;;;-0.20;1.00;;;;;;5066922;28;20205;-80
2023/12/03 03:08:29;;;;;;;43.93;24.17;;;-0.20;99.90;;;;;;5066367;28;20321;-80
2023/12/03 03:10:56;;;;;;;40.40;22.27;;;-0.20;99.90;;;;;;5069050;28;20198;-81
2023/12/03 03:13:23;;;;;;;41.87;24.27;;;-0.20;99.90;;;;;;5068319;28;20206;-81
2023/12/03 03:15:51;;;;;;;41.47;23.43;;;-0.10;99.90;;;;;;5068704;28;20570;-81
2023/12/03 03:18:18;;;;;;;39.57;23.27;;;-0.20;99.90;;;;;;5069982;28;20208;-80
2023/12/03 03:20:45;;;;;;;42.20;24.67;;;-0.10;99.90;;;;;;5073676;28;20216;-79
2023/12/03 03:23:11;;;;;;;42.97;24.40;;;-0.10;99.90;;;;;;5068714;28;20209;-80
2023/12/03 03:25:38;;;;;;;39.50;23.27;;;-0.10;1.00;;;;;;5073936;28;20199;-80
2023/12/03 03:28:05;;;;;;;40.30;22.33;;;-0.10;1.00;;;;;;5075890;28;20285;-79
2023/12/03 03:30:32;;;;;;;42.00;24.43;;;-0.10;1.00;;;;;;5075031;28;20207;-82
2023/12/03 03:33:00;;;;;;;39.40;23.77;;;-0.10;1.00;;;;;;5067568;28;20213;-82
2023/12/03 03:35:26;;;;;;;40.93;23.73;;;-0.10;1.00;;;;;;5074261;28;20205;-81
2023/12/03 03:37:53;;;;;;;40.40;23.63;;;-0.10;1.00;;;;;;5067873;28;20213;-81
2023/12/03 03:40:20;;;;;;;42.47;24.93;;;-0.10;1.00;;;;;;5075835;28;20230;-81
2023/12/03 03:42:47;;;;;;;41.47;23.83;;;-0.10;1.00;;;;;;5073487;28;20202;-81
2023/12/03 03:45:14;;;;;;;42.10;24.03;;;-0.10;1.00;;;;;;5077596;28;20575;-81
2023/12/03 03:47:40;;;;;;;39.97;23.40;;;-0.10;1.00;;;;;;5076031;28;20208;-80
2023/12/03 03:50:09;;;;;;;42.90;25.60;;;-0.10;1.00;;;;;;5077334;28;20716;-81
2023/12/03 03:52:37;;;;;;;42.03;24.57;;;-0.10;1.00;;;;;;5076463;28;20209;-81
2023/12/03 03:55:04;;;;;;;38.97;23.33;;;-0.10;1.00;;;;;;5078939;28;20290;-80
2023/12/03 03:57:31;;;;;;;41.57;24.43;;;-0.10;28.50;;;;;;5079284;28;20207;-80
2023/12/03 03:59:58;;;;;;;42.57;24.93;;;-0.10;85.30;;;;;;5076721;28;20221;-80
2023/12/03 04:02:25;;;;;;;41.63;25.53;;;-0.10;99.90;;;;;;5075940;28;20206;-81
2023/12/03 04:04:51;;;;;;;40.60;23.90;;;-0.10;99.90;;;;;;5072508;28;20199;-80
2023/12/03 04:07:20;;;;;;;42.33;24.87;;;-0.10;99.90;;;;;;5069065;28;20203;-80
2023/12/03 04:09:46;;;;;;;42.27;24.67;;;-0.10;99.90;;;;;;5074632;28;20262;-80
2023/12/03 04:12:14;;;;;;;41.37;24.33;;;-0.10;99.90;;;;;;5072390;28;20229;-80
2023/12/03 04:14:40;;;;;;;45.20;25.53;;;-0.10;99.90;;;;;;5072566;28;20198;-80
2023/12/03 04:17:08;;;;;;;41.80;25.00;;;-0.10;99.90;;;;;;5069415;28;20241;-81
2023/12/03 04:19:35;;;;;;;43.40;25.60;;;-0.10;99.90;;;;;;5072050;28;20210;-80
2023/12/03 04:22:02;;;;;;;43.07;25.50;;;-0.10;99.90;;;;;;5073781;28;20204;-81
2023/12/03 04:24:30;;;;;;;46.90;25.87;;;-0.10;99.90;;;;;;5066450;28;20281;-82
2023/12/03 04:26:56;;;;;;;43.87;25.03;;;-0.10;99.90;;;;;;5065309;28;20689;-81
2023/12/03 04:29:23;;;;;;;43.23;26.50;;;-0.10;99.90;;;;;;5069248;28;20672;-79
2023/12/03 04:31:50;;;;;;;43.40;25.20;;;-0.10;99.90;;;;;;5070874;28;20201;-80
2023/12/03 04:34:17;;;;;;;46.13;26.43;;;-0.10;99.90;;;;;;5070181;28;20205;-80
2023/12/03 04:36:44;;;;;;;43.57;26.50;;;-0.10;99.90;;;;;;5073126;28;20213;-79
2023/12/03 04:39:10;;;;;;;41.43;25.93;;;-0.10;99.90;;;;;;5070165;28;20241;-81
2023/12/03 04:41:38;;;;;;;44.77;26.67;;;-0.10;99.90;;;;;;5074892;28;20687;-80
2023/12/03 04:44:08;;;;;;;46.87;27.27;;;-0.10;99.90;;;;;;5073781;28;20296;-81
2023/12/03 04:46:35;;;;;;;44.87;25.60;;;-0.20;99.90;;;;;;5074150;28;20224;-80
2023/12/03 04:49:01;;;;;;;44.97;26.73;;;-0.10;99.90;;;;;;5074791;28;20227;-80
2023/12/03 04:51:28;;;;;;;40.80;24.33;;;-0.10;99.90;;;;;;5078193;28;20201;-80
2023/12/03 04:53:55;;;;;;;48.07;26.87;;;-0.20;99.90;;;;;;5073818;28;20210;-81
2023/12/03 04:56:22;;;;;;;43.37;25.57;;;-0.20;99.90;;;;;;5072377;28;20199;-80
2023/12/03 04:58:50;;;;;;;43.33;25.10;;;-0.10;99.90;;;;;;5071909;28;20222;-79
2023/12/03 05:01:17;;;;;;;45.57;27.13;;;-0.20;99.90;;;;;;5078237;28;20215;-80
2023/12/03 05:03:44;;;;;;;46.20;26.87;;;-0.20;99.90;;;;;;5074003;28;20205;-80
2023/12/03 05:06:11;;;;;;;45.23;26.53;;;-0.10;99.90;;;;;;5073404;28;20657;-82
2023/12/03 05:08:38;;;;;;;45.87;25.33;;;-0.10;99.90;;;;;;5074030;28;20219;-82
2023/12/03 05:11:06;;;;;;;50.23;28.57;;;-0.10;99.90;;;;;;5070318;28;20581;-80
2023/12/03 05:13:34;;;;;;;46.90;27.20;;;-0.10;99.90;;;;;;5073148;28;20286;-80
2023/12/03 05:16:04;;;;;;;44.43;25.80;;;-0.10;99.90;;;;;;5072969;28;20284;-81
2023/12/03 05:18:31;;;;;;;43.33;25.30;;;-0.10;99.90;;;;;;5068573;28;20229;-79
2023/12/03 05:20:58;;;;;;;44.40;25.57;;;-0.10;99.90;;;;;;5074548;28;20199;-79
2023/12/03 05:23:24;;;;;;;39.87;23.97;;;-0.10;99.90;;;;;;5067540;28;20228;-80
2023/12/03 05:25:51;;;;;;;40.77;24.00;;;-0.10;99.90;;;;;;5066281;28;20199;-79
2023/12/03 05:28:18;;;;;;;41.13;23.67;;;0.00;99.90;;;;;;5069925;28;20295;-80
2023/12/03 05:30:46;;;;;;;42.73;25.30;;;-0.10;99.90;;;;;;5072023;28;20236;-82
2023/12/03 05:33:14;;;;;;;40.13;23.57;;;0.00;99.90;;;;;;5068976;28;20611;-80
2023/12/03 05:35:42;;;;;;;42.40;24.63;;;0.00;99.90;;;;;;5074900;28;20241;-81
2023/12/03 05:38:09;;;;;;;40.50;24.17;;;0.00;99.90;;;;;;5071469;28;20273;-82
2023/12/03 05:40:36;;;;;;;42.10;24.07;;;0.00;99.90;;;;;;5066826;28;20221;-80
2023/12/03 05:43:03;;;;;;;41.50;25.17;;;0.00;99.90;;;;;;5067477;28;20578;-80
2023/12/03 05:45:30;;;;;;;43.17;25.07;;;0.00;99.90;;;;;;5073420;28;20194;-81
2023/12/03 05:47:57;;;;;;;37.20;22.83;;;0.00;99.90;;;;;;5070535;28;20210;-80
2023/12/03 05:50:25;;;;;;;42.50;24.63;;;0.00;99.90;;;;;;5070353;28;20218;-79
2023/12/03 05:52:52;;;;;;;41.10;24.67;;;0.00;99.90;;;;;;5070906;28;20203;-81
2023/12/03 05:55:19;;;;;;;42.30;25.13;;;0.10;99.90;;;;;;5070154;28;20209;-80
2023/12/03 05:57:46;;;;;;;43.30;24.73;;;0.10;99.90;;;;;;5071240;28;20587;-82
2023/12/03 06:00:14;;;;;;;43.10;24.67;;;0.00;99.90;;;;;;5070299;28;20223;-81
2023/12/03 06:02:40;;;;;;;40.90;25.90;;;0.00;99.90;;;;;;5063796;28;20232;-81
2023/12/03 06:05:08;;;;;;;38.67;24.30;;;0.10;99.90;;;;;;5068054;28;20550;-80
2023/12/03 06:07:36;;;;;;;39.03;23.67;;;0.10;99.90;;;;;;5069024;28;20202;-80
2023/12/03 06:10:03;;;;;;;40.67;23.77;;;0.00;99.90;;;;;;5065107;28;20689;-79
2023/12/03 06:12:30;;;;;;;41.47;24.67;;;0.00;99.90;;;;;;5074111;28;20202;-81
2023/12/03 06:14:57;;;;;;;43.17;25.47;;;0.10;99.90;;;;;;5071794;28;20202;-78
2023/12/03 06:17:24;;;;;;;44.90;24.80;;;0.10;99.90;;;;;;5068083;28;20202;-80
2023/12/03 06:19:51;;;;;;;41.73;24.67;;;0.10;99.90;;;;;;5070034;28;20229;-83
2023/12/03 06:22:18;;;;;;;48.60;26.93;;;0.10;99.90;;;;;;5073366;28;20203;-80
2023/12/03 06:24:46;;;;;;;44.87;26.00;;;0.10;99.90;;;;;;5072343;28;20209;-82
2023/12/03 06:27:12;;;;;;;46.17;26.73;;;0.10;99.90;;;;;;5071591;28;20210;-80
2023/12/03 06:29:39;;;;;;;48.67;26.77;;;0.20;99.90;;;;;;5067197;28;20225;-81
2023/12/03 06:32:10;;;;;;;50.60;28.13;;;0.20;99.90;;;;;;5064348;28;20206;-78
2023/12/03 06:34:37;;;;;;;50.07;28.93;;;0.20;99.90;;;;;;5062957;28;20970;-79
2023/12/03 06:37:08;;;;;;;48.93;27.00;;;0.20;99.90;;;;;;5069973;28;20213;-80
2023/12/03 06:39:35;;;;;;;48.87;27.77;;;0.20;99.90;;;;;;5065685;28;20226;-82
2023/12/03 06:42:03;;;;;;;48.03;27.47;;;0.20;99.90;;;;;;5059946;28;20194;-81
2023/12/03 06:44:30;;;;;;;46.43;27.13;;;0.20;99.90;;;;;;5065178;28;20237;-80
2023/12/03 06:46:57;;;;;;;49.97;27.13;;;0.20;99.90;;;;;;5065548;28;20213;-82
2023/12/03 06:49:24;;;;;;;49.60;27.37;;;0.20;99.90;;;;;;5064754;28;20317;-81
2023/12/03 06:51:51;;;;;;;48.53;26.47;;;0.40;99.90;;;;;;5063346;28;20651;-81
2023/12/03 06:54:18;;;;;;;45.43;27.13;;;0.20;99.90;;;;;;5068519;28;20202;-82
2023/12/03 06:56:44;;;;;;;46.57;25.87;;;0.20;99.90;;;;;;5066749;28;20706;-79
2023/12/03 06:59:13;;;;;;;45.93;25.57;;;0.20;99.90;;;;;;5069026;28;20219;-81
2023/12/03 07:01:39;;;;;;;46.30;26.30;;;0.20;99.90;;;;;;5074871;28;20716;-80
2023/12/03 07:04:06;;;;;;;46.60;27.27;;;0.20;99.90;;;;;;5072120;28;20760;-81
2023/12/03 07:06:33;;;;;;;48.67;27.30;;;0.20;99.90;;;;;;5073325;28;20212;-81
2023/12/03 07:09:00;;;;;;;48.53;27.47;;;0.20;99.90;;;;;;5064745;28;20226;-80
2023/12/03 07:11:29;;;;;;;45.23;25.17;;;0.20;99.90;;;;;;5067528;28;20234;-81
2023/12/03 07:13:56;;;;;;;44.47;25.90;;;0.20;99.90;;;;;;5073969;28;20221;-80
2023/12/03 07:16:24;;;;;;;46.67;25.77;;;0.20;99.90;;;;;;5066421;28;20204;-80
2023/12/03 07:18:51;;;;;;;47.03;26.20;;;0.20;99.90;;;;;;5066422;28;20221;-80
2023/12/03 07:21:18;;;;;;;48.03;26.50;;;0.20;99.90;;;;;;5067731;28;20198;-80
2023/12/03 07:23:45;;;;;;;46.43;22.77;;;0.30;99.90;;;;;;5072588;28;20202;-80
2023/12/03 07:26:12;;;;;;;45.30;25.50;;;0.20;99.90;;;;;;5068135;28;20234;-79
2023/12/03 07:28:38;;;;;;;46.17;26.10;;;0.30;99.90;;;;;;5070290;28;20676;-81
2023/12/03 07:31:06;;;;;;;40.97;24.23;;;0.20;99.90;;;;;;5061962;28;20255;-81
2023/12/03 07:33:35;;;;;;;44.47;25.33;;;0.30;99.90;;;;;;5066532;28;20217;-82
2023/12/03 07:36:02;;;;;;;42.17;21.87;;;0.30;99.90;;;;;;5066483;28;20649;-80
2023/12/03 07:38:29;;;;;;;45.70;26.23;;;0.70;99.90;;;;;;5059716;28;20235;-80
2023/12/03 07:40:56;;;;;;;47.07;27.73;;;0.30;99.90;;;;;;5063004;28;20210;-80
2023/12/03 07:43:23;;;;;;;45.33;27.03;;;0.30;99.90;;;;;;5068337;28;20730;-82
2023/12/03 07:45:50;;;;;;;42.43;23.90;;;0.30;99.90;;;;;;5059552;28;20205;-80
2023/12/03 07:48:17;;;;;;;46.47;26.27;;;0.30;99.90;;;;;;5068083;28;20206;-81
2023/12/03 07:50:45;;;;;;;44.77;25.63;;;0.40;99.90;;;;;;5065574;28;20223;-81
2023/12/03 07:53:12;;;;;;;43.97;24.57;;;0.40;99.90;;;;;;5066404;28;20207;-80
2023/12/03 07:55:39;;;;;;;41.97;24.40;;;0.40;99.90;;;;;;5071238;28;20561;-82
2023/12/03 07:58:06;;;;;;;37.80;20.97;;;0.40;99.90;;;;;;5061282;28;20203;-80
2023/12/03 08:00:33;;;;;;;40.90;20.70;;;0.40;99.90;;;;;;5068133;28;20226;-81
2023/12/03 08:03:00;;;;;;;40.80;20.30;;;0.40;99.90;;;;;;5067368;28;20199;-80
2023/12/03 08:05:27;;;;;;;43.20;20.93;;;0.50;99.90;;;;;;5064263;28;20206;-80
2023/12/03 08:07:55;;;;;;;40.07;20.93;;;0.50;99.90;;;;;;5072516;28;20212;-80
2023/12/03 08:10:22;;;;;;;42.23;21.13;;;0.50;99.90;;;;;;5065393;28;20234;-81
2023/12/03 08:12:48;;;;;;;40.93;24.53;;;0.50;99.90;;;;;;5073222;28;20205;-82
2023/12/03 08:15:15;;;;;;;43.20;24.20;;;0.50;99.90;;;;;;5064041;28;20202;-82
2023/12/03 08:17:42;;;;;;;43.53;23.70;;;0.50;99.90;;;;;;5070512;28;20217;-81
2023/12/03 08:20:10;;;;;;;41.33;25.93;;;0.60;99.90;;;;;;5072202;28;20236;-80
2023/12/03 08:22:37;;;;;;;43.00;21.73;;;0.60;99.90;;;;;;5069891;28;20291;-82
2023/12/03 08:25:07;;;;;;;44.33;22.13;;;0.60;99.90;;;;;;5069358;28;20199;-82
2023/12/03 08:27:34;;;;;;;42.23;22.43;;;0.60;99.90;;;;;;5072958;28;20684;-81
2023/12/03 08:30:01;;;;;;;46.03;26.03;;;0.70;99.90;;;;;;5065883;28;20258;-80
2023/12/03 08:32:27;;;;;;;47.70;25.40;;;0.70;99.90;;;;;;5056118;28;20229;-81
2023/12/03 08:34:54;;;;;;;45.87;27.53;;;0.70;99.90;;;;;;5060667;28;20198;-80
2023/12/03 08:37:21;;;;;;;47.77;24.30;;;0.70;99.90;;;;;;5066974;28;20210;-80
2023/12/03 08:39:48;;;;;;;43.10;25.77;;;0.70;99.90;;;;;;5065122;28;20230;-81
2023/12/03 08:42:19;;;;;;;43.00;26.47;;;0.70;99.90;;;;;;5068778;28;20268;-81
2023/12/03 08:44:46;;;;;;;44.07;24.57;;;0.70;99.90;;;;;;5069182;28;20657;-81
2023/12/03 08:47:12;;;;;;;40.00;22.30;;;0.80;99.90;;;;;;5067761;28;20202;-80
2023/12/03 08:49:39;;;;;;;44.03;25.10;;;0.80;99.90;;;;;;5071170;28;20229;-79
2023/12/03 08:52:07;;;;;;;40.07;23.77;;;0.80;99.90;;;;;;5073052;28;20202;-80
2023/12/03 08:54:34;;;;;;;43.73;21.63;;;0.90;99.90;;;;;;5067736;28;20203;-80
2023/12/03 08:57:02;;;;;;;44.13;21.40;;;0.90;99.90;;;;;;5066829;28;20199;-79
2023/12/03 08:59:30;;;;;;;39.63;21.60;;;1.10;99.90;;;;;;5070358;28;20229;-80
2023/12/03 09:01:58;;;;;;;44.30;25.50;;;1.00;99.90;;;;;;5068285;28;20194;-82
2023/12/03 09:04:25;;;;;;;40.53;21.93;;;1.00;99.90;;;;;;5071846;28;20261;-80
2023/12/03 09:06:52;;;;;;;46.27;24.20;;;0.90;99.90;;;;;;5074780;28;20222;-82
2023/12/03 09:09:19;;;;;;;49.83;25.57;;;0.90;99.90;;;;;;5065562;28;20222;-82
2023/12/03 09:11:46;;;;;;;53.30;30.57;;;1.00;99.90;;;;;;5072776;28;20313;-81
2023/12/03 09:14:12;;;;;;;48.80;25.57;;;1.00;99.90;;;;;;5064388;28;20269;-79
2023/12/03 09:16:41;;;;;;;49.77;25.27;;;1.00;99.90;;;;;;5066254;28;20221;-81
2023/12/03 09:19:07;;;;;;;51.37;26.40;;;1.10;99.90;;;;;;5067968;28;20233;-81
2023/12/03 09:21:34;;;;;;;49.37;25.17;;;1.20;99.90;;;;;;5073223;28;20635;-81
2023/12/03 09:24:01;;;;;;;55.13;25.13;;;1.20;99.90;;;;;;5074293;28;20285;-82
2023/12/03 09:26:28;;;;;;;56.93;24.60;;;1.20;99.90;;;;;;5072719;28;20264;-79
2023/12/03 09:28:55;;;;;;;51.47;24.90;;;1.20;99.90;;;;;;5061830;28;20595;-81
2023/12/03 09:31:21;;;;;;;47.17;22.57;;;1.30;99.90;;;;;;5064295;28;20664;-80
2023/12/03 09:33:50;;;;;;;53.80;28.77;;;1.30;99.90;;;;;;5064842;28;20198;-80
2023/12/03 09:36:16;;;;;;;48.90;26.50;;;1.40;99.90;;;;;;5056477;28;20622;-80
2023/12/03 09:38:43;;;;;;;50.70;26.87;;;1.30;99.90;;;;;;5054369;28;20227;-80
2023/12/03 09:41:13;;;;;;;54.40;24.00;;;1.40;99.90;;;;;;5062263;28;20201;-81
2023/12/03 09:43:43;;;;;;;47.37;22.30;;;1.40;99.90;;;;;;5061475;28;20645;-80
2023/12/03 09:46:13;;;;;;;55.60;26.03;;;1.40;99.90;;;;;;5062799;28;20207;-80
2023/12/03 09:48:43;;;;;;;49.40;24.63;;;1.50;99.90;;;;;;5058478;28;20681;-81
2023/12/03 09:51:12;;;;;;;55.67;25.80;;;1.60;99.90;;;;;;5063528;28;20231;-82
2023/12/03 09:53:43;;;;;;;56.17;23.77;;;1.50;99.90;;;;;;5059402;28;20211;-79
2023/12/03 09:56:12;;;;;;;57.80;29.23;;;1.50;99.90;;;;;;5065820;28;20256;-80
2023/12/03 09:58:39;;;;;;;57.80;26.87;;;1.50;99.90;;;;;;5067095;28;20230;-80
2023/12/03 10:01:06;;;;;;;54.33;25.13;;;1.50;99.90;;;;;;5065681;28;20285;-79
2023/12/03 10:03:33;;;;;;;59.73;23.10;;;1.40;99.90;;;;;;5063760;28;20203;-83
2023/12/03 10:06:00;;;;;;;54.30;25.97;;;1.40;99.90;;;;;;5071154;28;20285;-82
2023/12/03 10:08:31;;;;;;;53.83;24.67;;;1.40;99.90;;;;;;5068128;28;20232;-81
2023/12/03 10:11:00;;;;;;;57.57;24.70;;;1.40;99.90;;;;;;5064946;28;20254;-80
2023/12/03 10:13:27;;;;;;;55.93;29.10;;;1.30;99.90;;;;;;5066543;28;20669;-82
2023/12/03 10:15:55;;;;;;;49.13;26.23;;;1.40;99.90;;;;;;5071014;28;20202;-80
2023/12/03 10:18:22;;;;;;;57.27;26.47;;;1.40;99.90;;;;;;5070613;28;20207;-80
2023/12/03 10:20:49;;;;;;;52.30;25.67;;;1.40;99.90;;;;;;5072403;28;20217;-82
2023/12/03 10:23:18;;;;;;;52.53;26.03;;;1.40;99.90;;;;;;5072471;28;20201;-79
2023/12/03 10:25:46;;;;;;;48.23;22.30;;;1.40;99.90;;;;;;5072239;28;20210;-80
2023/12/03 10:28:13;;;;;;;48.00;23.40;;;1.40;99.90;;;;;;5070257;28;20198;-80
2023/12/03 10:30:41;;;;;;;48.70;24.80;;;1.40;31.10;;;;;;5073714;28;21129;-80
2023/12/03 10:33:11;;;;;;;47.90;20.83;;;1.50;1.00;;;;;;5074962;28;20205;-79
2023/12/03 10:35:38;;;;;;;44.33;19.90;;;1.50;1.00;;;;;;5067603;28;20210;-80
2023/12/03 10:38:07;;;;;;;48.17;23.40;;;1.50;1.00;;;;;;5075164;28;20202;-80
2023/12/03 10:40:34;;;;;;;51.37;23.73;;;1.60;1.00;;;;;;5064396;28;20266;-81
2023/12/03 10:43:03;;;;;;;53.87;26.13;;;1.60;1.00;;;;;;5058047;28;20575;-81
2023/12/03 10:45:30;;;;;;;61.87;29.40;;;1.60;1.00;;;;;;5063450;28;20560;-81
2023/12/03 10:48:00;;;;;;;56.43;26.27;;;1.60;1.00;;;;;;5063870;28;20620;-81
2023/12/03 10:50:29;;;;;;;54.37;29.20;;;1.70;1.00;;;;;;5063687;28;20234;-82
2023/12/03 10:52:59;;;;;;;53.77;23.53;;;1.70;1.00;;;;;;5063171;28;20588;-81
2023/12/03 10:55:26;;;;;;;54.77;25.10;;;1.70;1.00;;;;;;5063322;28;20289;-82
2023/12/03 10:57:59;;;;;;;51.83;24.20;;;1.70;1.00;;;;;;5061161;28;20621;-81
2023/12/03 11:00:40;;;;;;;48.03;22.83;;;1.70;1.00;;;;;;5059065;28;20593;-81
2023/12/03 11:03:15;;;;;;;49.00;23.27;;;1.80;1.00;;;;;;5057696;28;20203;-81
2023/12/03 11:05:48;;;;;;;50.43;25.93;;;1.70;99.90;;;;;;5060998;28;20574;-81
2023/12/03 11:08:16;;;;;;;49.27;22.67;;;1.70;99.90;;;;;;5066840;28;20293;-81
2023/12/03 11:10:44;;;;;;;48.00;24.97;;;1.70;1.00;;;;;;5062075;28;20650;-81
2023/12/03 11:13:12;;;;;;;45.33;21.57;;;1.80;1.00;;;;;;5061079;28;20679;-81
2023/12/03 11:15:41;;;;;;;45.23;21.03;;;1.80;1.00;;;;;;5063983;28;20199;-81
2023/12/03 11:18:09;;;;;;;45.97;21.50;;;1.80;99.90;;;;;;5064875;28;20200;-81
2023/12/03 11:20:38;;;;;;;42.50;20.40;;;1.80;99.90;;;;;;5065161;28;20206;-82
2023/12/03 11:23:24;;;;;;;42.43;21.43;;;1.90;99.90;;;;;;5066840;28;20198;-81
2023/12/03 11:25:56;;;;;;;47.93;26.03;;;1.90;1.00;;;;;;5066935;28;20245;-81
2023/12/03 11:28:23;;;;;;;43.70;20.50;;;2.00;1.00;;;;;;5069266;28;20284;-82
2023/12/03 11:30:51;;;;;;;44.87;20.70;;;2.00;1.00;;;;;;5071787;28;20226;-81
2023/12/03 11:33:21;;;;;;;39.90;19.83;;;1.90;1.00;;;;;;5071496;28;20727;-81
2023/12/03 11:35:51;;;;;;;42.93;19.83;;;2.00;99.90;;;;;;5072929;28;20206;-81
2023/12/03 11:38:32;;;;;;;38.10;19.60;;;2.00;99.90;;;;;;5073003;28;20574;-81
2023/12/03 11:40:59;;;;;;;49.23;25.37;;;2.00;99.90;;;;;;5070125;28;20205;-81
2023/12/03 11:43:27;;;;;;;39.10;19.77;;;1.90;99.90;;;;;;5057290;28;20199;-81
2023/12/03 11:45:55;;;;;;;35.53;17.70;;;1.90;72.90;;;;;;5062580;28;20238;-81
2023/12/03 11:48:25;;;;;;;35.40;16.87;;;2.00;1.00;;;;;;5062147;28;20213;-81
2023/12/03 11:50:52;;;;;;;36.77;16.43;;;2.00;1.00;;;;;;5057568;28;20210;-81
2023/12/03 11:53:27;;;;;;;33.07;14.83;;;2.00;1.00;;;;;;5054798;28;20582;-81
2023/12/03 11:55:55;;;;;;;30.30;14.40;;;2.00;1.00;;;;;;5057319;28;20212;-81
2023/12/03 11:58:22;;;;;;;33.10;15.73;;;1.90;1.00;;;;;;5058525;28;20206;-81
2023/12/03 12:00:49;;;;;;;34.50;17.53;;;2.00;1.00;;;;;;5065934;28;20226;-81
2023/12/03 12:03:17;;;;;;;33.83;17.17;;;2.00;1.00;;;;;;5062802;28;20575;-81
2023/12/03 12:05:45;;;;;;;27.43;14.33;;;2.10;1.00;;;;;;5069265;28;20209;-81
2023/12/03 12:08:18;;;;;;;26.53;14.83;;;2.10;1.00;;;;;;5067052;28;20206;-81
2023/12/03 12:10:45;;;;;;;30.80;13.30;;;2.10;99.90;;;;;;5066613;28;20206;-82
2023/12/03 12:13:12;;;;;;;27.07;12.43;;;2.20;1.00;;;;;;5068598;28;20615;-81
2023/12/03 12:15:39;;;;;;;26.93;12.97;;;2.10;1.00;;;;;;5066311;28;20199;-81
2023/12/03 12:18:06;;;;;;;27.17;13.30;;;2.20;1.00;;;;;;5070292;28;20194;-81
2023/12/03 12:20:34;;;;;;;32.27;13.67;;;2.20;1.00;;;;;;5067523;28;20577;-81
2023/12/03 12:23:01;;;;;;;30.17;14.13;;;2.20;10.50;;;;;;5069495;28;20209;-80
2023/12/03 12:25:29;;;;;;;29.97;14.63;;;2.20;1.00;;;;;;5065787;28;20198;-81
2023/12/03 12:27:56;;;;;;;28.87;13.30;;;2.20;1.00;;;;;;5069508;28;20194;-81
2023/12/03 12:30:27;;;;;;;28.37;12.53;;;2.20;1.00;;;;;;5067915;28;20225;-80
2023/12/03 12:32:54;;;;;;;28.30;12.57;;;2.20;1.00;;;;;;5069299;28;20218;-81
2023/12/03 12:35:22;;;;;;;24.33;11.60;;;2.20;1.00;;;;;;5067260;28;20239;-82
2023/12/03 12:38:00;;;;;;;26.07;12.90;;;2.20;1.00;;;;;;5067968;28;20209;-81